.
WxDataArchive / Data Records for 2008-07-02
2008-07-01 July 2008 2008-07-03

Data Records for Wednesday, 02 July 2008

Time	Temp	Chill	HIndex	Humid	Dewpt	 Wind 	HiWind	WindDir	Rain 	Barom 
-----	----	-----	------	-----	-----	------	------	-------	-----	----- 
00:00	63.4	63.4	63.4	64	51.0	0	0	---	0.00	29.914 
00:05	63.2	63.2	63.2	64	50.8	0	0	---	0.00	29.912 
00:10	63.4	63.4	63.4	64	51.0	0	0	---	0.00	29.912 
00:15	63.4	63.4	63.4	65	51.4	0	0	---	0.00	29.911 
00:20	63.4	63.4	63.4	64	51.0	0	0	---	0.00	29.909 
00:25	63.4	63.4	63.4	65	51.4	0	0	---	0.00	29.908 
00:30	63.5	63.5	63.5	64	51.1	0	0	---	0.00	29.908 
00:35	63.5	63.5	63.5	64	51.1	0	1	248	0.00	29.909 
00:40	63.5	63.5	63.5	64	51.1	0	0	---	0.00	29.907 
00:45	63.5	63.5	63.5	64	51.1	0	0	---	0.00	29.907 
00:50	63.4	63.4	63.4	64	51.0	0	0	---	0.00	29.907 
00:55	63.5	63.5	63.5	64	51.1	0	1	248	0.00	29.906 
01:00	63.7	63.7	63.7	64	51.3	0	1	248	0.00	29.905 
01:05	63.7	63.7	63.7	64	51.3	0	1	248	0.00	29.900 
01:10	63.7	63.7	63.7	64	51.3	0	2	248	0.00	29.897 
01:15	63.7	63.7	63.7	64	51.3	0	1	248	0.00	29.896 
01:20	63.7	63.7	63.7	64	51.3	0	1	248	0.00	29.897 
01:25	63.7	63.7	63.7	65	51.7	0	1	248	0.00	29.899 
01:30	63.4	63.4	63.4	65	51.4	0	0	---	0.00	29.900 
01:35	63.2	63.2	63.2	66	51.6	0	1	248	0.00	29.899 
01:40	63.1	63.1	63.1	66	51.6	0	1	248	0.00	29.896 
01:45	63.1	63.1	63.1	66	51.6	0	1	248	0.00	29.893 
01:50	62.9	62.9	62.9	67	51.8	0	1	248	0.00	29.893 
01:55	62.7	62.7	62.7	67	51.6	0	0	---	0.00	29.892 
02:00	62.7	62.7	62.7	67	51.6	0	1	248	0.00	29.892 
02:05	62.6	62.6	62.6	67	51.5	0	1	248	0.00	29.892 
02:10	62.4	62.4	62.4	68	51.7	0	0	---	0.00	29.894 
02:15	62.4	62.4	62.4	68	51.7	0	1	248	0.00	29.892 
02:20	62.4	62.4	62.4	68	51.7	0	1	248	0.00	29.892 
02:25	62.3	62.3	62.3	69	52.0	0	1	248	0.00	29.891 
02:30	62.3	62.3	62.3	69	52.0	0	0	---	0.00	29.890 
02:35	62.1	62.1	62.1	69	51.8	0	1	248	0.00	29.890 
02:40	62.1	62.1	62.1	69	51.8	0	0	---	0.00	29.889 
02:45	62.0	62.0	62.0	70	52.1	0	1	248	0.00	29.886 
02:50	61.8	61.8	61.8	70	51.9	0	2	248	0.00	29.885 
02:55	61.8	61.8	61.8	70	51.9	0	2	248	0.00	29.884 
03:00	61.8	61.8	61.8	70	51.9	0	1	248	0.00	29.883 
03:05	61.8	61.8	61.8	70	51.9	0	2	248	0.00	29.880 
03:10	61.8	61.8	61.8	70	51.9	0	1	248	0.00	29.879 
03:15	61.8	61.8	61.8	71	52.3	0	1	248	0.00	29.878 
03:20	61.8	61.8	61.8	71	52.3	0	1	248	0.00	29.877 
03:25	61.8	61.8	61.8	71	52.3	0	2	248	0.00	29.875 
03:30	61.8	61.8	61.8	71	52.3	0	1	248	0.00	29.876 
03:35	61.8	61.8	61.8	71	52.3	0	1	248	0.00	29.877 
03:40	61.8	61.8	61.8	71	52.3	0	0	---	0.00	29.878 
03:45	61.8	61.8	61.8	71	52.3	0	1	248	0.00	29.881 
03:50	62.0	62.0	62.0	71	52.5	0	1	248	0.00	29.885 
03:55	62.0	62.0	62.0	71	52.5	0	1	248	0.00	29.885 
04:00	62.1	62.1	62.1	71	52.6	0	1	248	0.00	29.886 
04:05	62.1	62.1	62.1	71	52.6	0	1	248	0.00	29.886 
04:10	62.0	62.0	62.0	71	52.5	0	0	---	0.00	29.889 
04:15	61.8	61.8	61.8	71	52.3	0	1	248	0.00	29.890 
04:20	61.8	61.8	61.8	72	52.7	0	1	248	0.00	29.890 
04:25	61.6	61.6	61.6	72	52.5	0	1	248	0.00	29.892 
04:30	61.6	61.6	61.6	72	52.5	0	1	248	0.00	29.895 
04:35	61.5	61.5	61.5	73	52.8	0	0	---	0.00	29.897 
04:40	61.3	61.3	61.3	73	52.6	0	0	---	0.00	29.901 
04:45	61.2	61.2	61.2	73	52.5	0	0	---	0.00	29.900 
04:50	61.0	61.0	61.0	74	52.6	0	0	---	0.00	29.904 
04:55	60.9	60.9	60.9	75	52.9	0	0	---	0.00	29.905 
05:00	60.7	60.7	60.7	75	52.7	0	0	---	0.00	29.906 
05:05	60.7	60.7	60.7	75	52.7	0	0	---	0.00	29.908 
05:10	60.7	60.7	60.7	76	53.1	0	0	---	0.00	29.908 
05:15	60.7	60.7	60.7	76	53.1	0	0	---	0.00	29.908 
05:20	60.7	60.7	60.7	76	53.1	0	1	248	0.00	29.909 
05:25	60.7	60.7	60.7	76	53.1	0	1	248	0.00	29.910 
05:30	60.7	60.7	60.7	76	53.1	0	1	248	0.00	29.910 
05:35	60.9	60.9	60.9	76	53.3	0	1	248	0.00	29.910 
05:40	61.2	61.2	61.2	75	53.2	0	1	248	0.00	29.911 
05:45	61.3	61.3	61.3	74	52.9	0	1	248	0.00	29.910 
05:50	61.5	61.5	61.5	74	53.1	0	1	248	0.00	29.908 
05:55	61.6	61.6	61.6	74	53.2	0	0	---	0.00	29.909 
06:00	62.0	62.0	62.0	74	53.6	0	1	248	0.00	29.908 
06:05	62.4	62.4	62.4	73	53.6	0	3	248	0.00	29.909 
06:10	62.7	62.7	62.7	72	53.5	0	2	248	0.00	29.907 
06:15	63.1	63.1	63.1	71	53.5	0	1	248	0.00	29.906 
06:20	63.4	63.4	63.4	71	53.8	0	4	248	0.00	29.905 
06:25	63.7	63.7	63.7	70	53.7	1	3	292	0.00	29.900 
06:30	64.0	64.0	64.0	69	53.6	0	4	248	0.00	29.898 
06:35	64.5	64.5	64.5	68	53.7	1	4	248	0.00	29.895 
06:40	64.8	64.8	64.8	68	54.0	1	3	270	0.00	29.892 
06:45	65.2	65.2	65.2	67	54.0	1	4	270	0.00	29.890 
06:50	65.6	65.6	65.6	67	54.3	1	4	248	0.00	29.890 
06:55	66.0	66.0	66.0	67	54.7	1	3	248	0.00	29.890 
07:00	66.1	66.1	66.1	66	54.4	1	4	248	0.00	29.891 
07:05	66.4	66.4	66.4	65	54.3	1	4	270	0.00	29.892 
07:10	66.9	66.9	66.9	65	54.7	1	3	225	0.00	29.893 
07:15	67.4	67.4	67.4	65	55.2	1	3	248	0.00	29.891 
07:20	67.8	67.8	67.8	64	55.2	1	5	248	0.00	29.890 
07:25	68.1	68.1	68.1	64	55.5	1	4	248	0.00	29.890 
07:30	68.4	68.4	68.4	64	55.7	1	5	248	0.00	29.888 
07:35	68.6	68.6	68.6	63	55.5	1	5	225	0.00	29.889 
07:40	68.8	68.8	68.8	63	55.7	2	5	225	0.00	29.888 
07:45	69.1	69.1	69.1	63	56.0	1	2	270	0.00	29.889 
07:50	69.6	69.6	69.6	62	56.0	1	4	248	0.00	29.890 
07:55	69.8	69.8	69.8	63	56.6	1	6	248	0.00	29.888 
08:00	70.3	70.3	70.3	63	57.1	1	3	248	0.00	29.886 
08:05	70.6	70.6	70.6	62	56.9	1	5	270	0.00	29.890 
08:10	70.9	70.9	70.9	63	57.7	1	4	292	0.00	29.887 
08:15	71.5	71.5	71.5	62	57.8	1	4	270	0.00	29.886 
08:20	71.8	71.8	71.8	61	57.6	2	4	248	0.00	29.887 
08:25	72.1	72.1	72.1	61	57.9	1	4	292	0.00	29.886 
08:30	72.7	72.7	72.7	61	58.5	1	4	248	0.00	29.883 
08:35	73.0	73.0	73.0	59	57.8	1	4	248	0.00	29.883 
08:40	73.3	73.3	73.3	58	57.6	1	7	248	0.00	29.887 
08:45	73.5	73.5	73.5	61	59.2	1	7	248	0.00	29.881 
08:50	73.9	73.9	73.9	58	58.2	1	3	270	0.00	29.876 
08:55	74.0	74.0	74.0	59	58.7	2	7	248	0.00	29.875 
09:00	74.2	74.2	74.2	58	58.5	2	5	248	0.00	29.875 
09:05	74.4	74.4	74.4	59	59.1	1	5	270	0.00	29.876 
09:10	74.7	74.7	74.7	59	59.4	2	4	248	0.00	29.874 
09:15	74.9	74.9	74.9	58	59.1	2	4	248	0.00	29.873 
09:20	75.1	75.1	77.5	57	58.8	2	5	248	0.00	29.874 
09:25	75.4	75.4	77.7	57	59.1	2	4	248	0.00	29.875 
09:30	76.0	76.0	78.1	57	59.6	1	3	248	0.00	29.874 
09:35	76.3	76.3	78.3	56	59.4	1	4	248	0.00	29.874 
09:40	76.8	76.8	78.6	56	59.9	1	5	248	0.00	29.875 
09:45	77.6	77.6	79.2	55	60.1	1	3	248	0.00	29.874 
09:50	77.6	77.6	79.1	53	59.1	2	6	248	0.00	29.873 
09:55	77.9	77.9	79.4	55	60.4	1	3	248	0.00	29.869 
10:00	78.6	78.6	79.9	54	60.5	1	3	22	0.00	29.870 
10:05	78.6	78.6	79.7	51	58.9	3	11	270	0.00	29.869 
10:10	78.8	78.8	79.9	51	59.1	2	9	270	0.00	29.860 
10:15	79.2	79.2	80.3	52	60.0	2	6	248	0.00	29.860 
10:20	79.2	79.2	80.2	51	59.5	2	5	270	0.00	29.864 
10:25	79.4	79.4	80.3	50	59.1	3	9	270	0.00	29.866 
10:30	79.6	79.6	80.5	50	59.3	2	11	270	0.00	29.870 
10:35	79.6	79.6	80.8	54	61.5	2	5	270	0.00	29.867 
10:40	79.9	79.9	80.9	52	60.7	2	5	270	0.00	29.869 
10:45	80.1	80.1	80.9	50	59.8	2	6	270	0.00	29.865 
10:50	80.1	80.1	80.8	49	59.2	3	10	270	0.00	29.858 
10:55	80.1	80.1	80.8	49	59.2	4	7	270	0.00	29.859 
11:00	80.5	80.5	81.4	51	60.7	2	4	270	0.00	29.855 
11:05	80.7	80.7	81.3	49	59.7	3	9	270	0.00	29.853 
11:10	81.1	81.1	81.8	50	60.7	2	6	248	0.00	29.842 
11:15	81.2	81.2	81.7	48	59.6	3	6	270	0.00	29.841 
11:20	81.6	81.6	82.1	48	60.0	2	11	270	0.00	29.837 
11:25	81.4	81.4	81.6	46	58.6	4	8	270	0.00	29.840 
11:30	81.6	81.6	82.2	49	60.6	3	7	270	0.00	29.838 
11:35	81.6	81.6	82.1	48	60.0	3	9	270	0.00	29.833 
11:40	81.6	81.6	82.1	48	60.0	3	7	270	0.00	29.830 
11:45	82.0	82.0	82.5	48	60.3	2	10	270	0.00	29.826 
11:50	82.2	82.2	82.7	48	60.5	3	9	248	0.00	29.826 
11:55	82.2	82.2	82.5	47	59.9	4	11	270	0.00	29.827 
12:00	82.4	82.4	82.6	46	59.5	5	15	270	0.00	29.825 
12:05	82.4	82.4	82.9	48	60.7	4	11	270	0.00	29.822 
12:10	82.2	82.2	82.7	48	60.5	4	10	270	0.00	29.810 
12:15	82.4	82.4	82.9	48	60.7	3	7	248	0.00	29.810 
12:20	82.6	82.6	83.1	48	60.9	4	13	270	0.00	29.810 
12:25	82.4	82.4	82.7	47	60.1	4	12	270	0.00	29.808 
12:30	82.6	82.6	83.0	47	60.3	4	10	270	0.00	29.810 
12:35	82.6	82.6	83.1	48	60.9	5	12	248	0.00	29.811 
12:40	82.2	82.2	82.8	49	61.1	3	10	270	0.00	29.813 
12:45	82.4	82.4	83.2	50	61.9	3	9	292	0.00	29.810 
12:50	83.2	83.2	84.5	52	63.7	3	11	270	0.00	29.812 
12:55	83.0	83.0	83.7	49	61.8	3	6	248	0.00	29.807 
13:00	83.0	83.0	83.9	50	62.4	2	4	248	0.00	29.805 
13:05	83.0	83.0	83.7	49	61.8	3	7	248	0.00	29.801 
13:10	83.4	83.4	84.0	48	61.6	3	10	248	0.00	29.799 
13:15	83.8	83.8	84.5	48	62.0	3	9	270	0.00	29.797 
13:20	83.4	83.4	83.7	46	60.4	5	10	270	0.00	29.803 
13:25	83.0	83.0	83.4	47	60.7	5	11	270	0.00	29.797 
13:30	83.4	83.4	84.2	49	62.2	3	9	248	0.00	29.794 
13:35	83.8	83.8	84.1	46	60.8	4	9	270	0.00	29.795 
13:40	84.3	84.3	85.1	48	62.4	3	6	270	0.00	29.804 
13:45	84.0	84.0	84.5	47	61.6	3	7	270	0.00	29.800 
13:50	83.4	83.4	84.0	48	61.6	3	10	270	0.00	29.796 
13:55	83.6	83.6	84.1	47	61.2	2	6	270	0.00	29.793 
14:00	84.0	84.0	84.5	47	61.6	3	9	270	0.00	29.791 
14:05	84.1	84.1	84.6	47	61.7	3	11	270	0.00	29.790 
14:10	83.8	83.8	84.7	49	62.6	3	10	270	0.00	29.782 
14:15	84.1	84.1	84.8	48	62.3	2	5	270	0.00	29.778 
14:20	84.9	84.9	85.6	47	62.4	4	9	270	0.00	29.777 
14:25	84.9	84.9	85.4	46	61.8	4	10	270	0.00	29.776 
14:30	84.5	84.5	85.6	49	63.2	3	9	225	0.00	29.774 
14:35	84.7	84.7	85.4	47	62.2	4	9	270	0.00	29.769 
14:40	84.9	84.9	85.8	48	63.0	4	11	270	0.00	29.773 
14:45	85.1	85.1	86.1	48	63.2	3	10	270	0.00	29.774 
14:50	84.5	84.5	85.3	48	62.6	3	5	270	0.00	29.774 
14:55	84.0	84.0	84.9	49	62.8	3	12	248	0.00	29.776 
15:00	83.6	83.6	84.4	49	62.4	3	8	248	0.00	29.776 
15:05	84.0	84.0	85.1	50	63.3	3	12	270	0.00	29.774 
15:10	84.5	84.5	86.0	51	64.4	1	5	270	0.00	29.770 
15:15	84.9	84.9	85.8	48	63.0	4	11	270	0.00	29.768 
15:20	84.1	84.1	85.0	49	62.8	4	9	270	0.00	29.774 
15:25	83.8	83.8	84.9	50	63.1	3	10	270	0.00	29.775 
15:30	83.6	83.6	84.6	50	63.0	2	6	270	0.00	29.767 
15:35	83.8	83.8	85.1	51	63.7	3	11	248	0.00	29.769 
15:40	83.6	83.6	84.8	51	63.5	3	9	270	0.00	29.763 
15:45	83.4	83.4	84.6	51	63.3	3	9	270	0.00	29.761 
15:50	83.6	83.6	84.8	51	63.5	3	9	270	0.00	29.754 
15:55	83.8	83.8	84.9	50	63.1	4	10	270	0.00	29.747 
16:00	84.1	84.1	85.5	51	64.0	3	7	248	0.00	29.743 
16:05	84.5	84.5	85.8	50	63.8	3	11	270	0.00	29.734 
16:10	84.1	84.1	85.3	50	63.4	4	12	248	0.00	29.740 
16:15	83.6	83.6	84.8	51	63.5	3	7	270	0.00	29.737 
16:20	83.6	83.6	85.0	52	64.1	2	12	270	0.00	29.735 
16:25	84.0	84.0	85.3	51	63.9	3	12	270	0.00	29.732 
16:30	84.1	84.1	85.5	51	64.0	3	14	270	0.00	29.731 
16:35	84.1	84.1	85.3	50	63.4	4	9	270	0.00	29.731 
16:40	83.8	83.8	84.9	50	63.1	4	9	248	0.00	29.729 
16:45	83.4	83.4	84.6	51	63.3	4	11	270	0.00	29.731 
16:50	83.4	83.4	84.8	52	63.9	3	12	270	0.00	29.728 
16:55	83.4	83.4	84.6	51	63.3	3	9	270	0.00	29.730 
17:00	83.4	83.4	84.8	52	63.9	4	13	270	0.00	29.734 
17:05	83.4	83.4	84.8	52	63.9	3	11	248	0.00	29.734 
17:10	83.4	83.4	84.8	52	63.9	3	6	270	0.00	29.731 
17:15	83.4	83.4	85.0	53	64.4	2	5	270	0.00	29.730 
17:20	83.4	83.4	85.0	53	64.4	3	7	270	0.00	29.731 
17:25	83.4	83.4	85.0	53	64.4	3	6	248	0.00	29.728 
17:30	83.4	83.4	84.8	52	63.9	3	10	248	0.00	29.727 
17:35	83.4	83.4	84.8	52	63.9	3	7	270	0.00	29.726 
17:40	83.4	83.4	84.8	52	63.9	3	7	270	0.00	29.727 
17:45	83.0	83.0	84.3	52	63.5	3	9	248	0.00	29.735 
17:50	83.0	83.0	84.3	52	63.5	5	19	270	0.00	29.738 
17:55	83.2	83.2	84.5	52	63.7	2	5	248	0.00	29.730 
18:00	83.2	83.2	84.5	52	63.7	3	11	270	0.00	29.736 
18:05	83.2	83.2	84.5	52	63.7	3	10	270	0.00	29.726 
18:10	83.0	83.0	84.5	53	64.1	2	5	270	0.00	29.721 
18:15	82.8	82.8	84.2	53	63.9	3	9	248	0.00	29.718 
18:20	82.8	82.8	84.0	52	63.3	3	11	270	0.00	29.713 
18:25	82.8	82.8	84.2	53	63.9	4	13	270	0.00	29.712 
18:30	82.6	82.6	84.0	53	63.7	3	7	270	0.00	29.712 
18:35	82.4	82.4	83.9	54	64.1	2	5	248	0.00	29.715 
18:40	82.2	82.2	83.6	54	63.9	3	15	270	0.00	29.713 
18:45	82.4	82.4	83.9	54	64.1	3	10	270	0.00	29.716 
18:50	82.2	82.2	83.6	54	63.9	2	7	248	0.00	29.720 
18:55	82.0	82.0	83.4	54	63.7	3	7	270	0.00	29.724 
19:00	82.2	82.2	83.6	54	63.9	4	12	270	0.00	29.726 
19:05	82.2	82.2	83.6	54	63.9	2	11	248	0.00	29.723 
19:10	82.2	82.2	83.6	54	63.9	3	11	248	0.00	29.723 
19:15	81.8	81.8	83.2	54	63.5	2	7	248	0.00	29.716 
19:20	81.6	81.6	83.1	55	63.8	2	10	292	0.00	29.722 
19:25	81.6	81.6	82.9	54	63.3	1	7	270	0.00	29.733 
19:30	81.6	81.6	82.9	54	63.3	1	4	248	0.00	29.737 
19:35	81.4	81.4	82.8	55	63.7	1	5	248	0.00	29.734 
19:40	81.2	81.2	82.6	55	63.5	3	10	270	0.00	29.728 
19:45	81.4	81.4	82.7	54	63.1	3	10	248	0.00	29.731 
19:50	81.4	81.4	82.8	55	63.7	2	11	248	0.00	29.736 
19:55	80.7	80.7	82.3	57	64.0	4	14	248	0.00	29.744 
20:00	79.6	79.6	81.3	60	64.5	3	9	270	0.00	29.741 
20:05	78.1	78.1	79.9	63	64.5	3	6	270	0.00	29.734 
20:10	77.2	77.2	79.0	66	64.9	3	6	270	0.00	29.741 
20:15	76.5	76.5	78.3	68	65.1	1	5	270	0.00	29.741 
20:20	76.1	76.1	77.8	69	65.2	1	5	248	0.00	29.740 
20:25	75.6	75.6	77.1	72	65.9	2	5	270	0.00	29.746 
20:30	75.1	75.1	76.8	70	64.6	3	7	270	0.00	29.744 
20:35	74.4	74.4	74.4	69	63.5	2	7	270	0.00	29.742 
20:40	73.7	73.7	73.7	70	63.3	1	3	248	0.00	29.752 
20:45	73.0	73.0	73.0	73	63.8	1	5	248	0.00	29.765 
20:50	71.8	71.8	71.8	78	64.6	1	4	68	0.01	29.745 
20:55	70.6	70.6	70.6	81	64.5	0	3	0	0.00	29.752 
21:00	69.8	69.8	69.8	83	64.4	0	1	315	0.00	29.758 
21:05	69.3	69.3	69.3	85	64.6	0	1	315	0.01	29.760 
21:10	68.9	68.9	68.9	88	65.2	0	1	315	0.03	29.773 
21:15	68.6	68.6	68.6	89	65.2	1	3	45	0.02	29.756 
21:20	68.6	68.6	68.6	90	65.5	0	3	90	0.00	29.757 
21:25	68.4	68.4	68.4	91	65.7	0	2	90	0.00	29.764 
21:30	68.4	68.4	68.4	92	66.0	0	2	90	0.00	29.778 
21:35	68.4	68.4	68.4	92	66.0	1	2	45	0.01	29.806 
21:40	68.4	68.4	68.4	93	66.3	1	3	292	0.06	29.792 
21:45	68.4	68.4	68.4	93	66.3	0	1	292	0.01	29.791 
21:50	68.4	68.4	68.4	93	66.3	0	2	292	0.00	29.788 
21:55	68.6	68.6	68.6	93	66.5	0	1	292	0.00	29.785 
22:00	68.6	68.6	68.6	93	66.5	0	0	---	0.00	29.777 
22:05	68.6	68.6	68.6	93	66.5	0	0	---	0.00	29.771 
22:10	68.6	68.6	68.6	94	66.8	0	1	292	0.00	29.758 
22:15	68.8	68.8	68.8	94	67.0	0	0	---	0.00	29.750 
22:20	68.9	68.9	68.9	94	67.1	0	0	---	0.00	29.752 
22:25	68.9	68.9	68.9	94	67.1	0	1	292	0.00	29.752 
22:30	68.9	68.9	68.9	94	67.1	0	1	292	0.00	29.742 
22:35	68.9	68.9	68.9	94	67.1	0	1	292	0.00	29.746 
22:40	69.1	69.1	69.1	94	67.3	0	1	292	0.00	29.745 
22:45	69.3	69.3	69.3	93	67.2	1	5	90	0.00	29.739 
22:50	69.4	69.4	69.4	93	67.3	0	2	68	0.00	29.740 
22:55	69.6	69.6	69.6	93	67.5	0	2	68	0.01	29.738 
23:00	69.6	69.6	69.6	92	67.2	1	2	68	0.00	29.737 
23:05	69.8	69.8	69.8	92	67.4	0	1	68	0.00	29.741 
23:10	69.8	69.8	69.8	92	67.4	0	2	68	0.00	29.742 
23:15	69.8	69.8	69.8	93	67.7	0	1	68	0.00	29.737 
23:20	69.8	69.8	69.8	93	67.7	0	0	---	0.00	29.735 
23:25	69.8	69.8	69.8	93	67.7	0	1	68	0.00	29.730 
23:30	69.6	69.6	69.6	93	67.5	0	1	68	0.00	29.734 
23:35	69.6	69.6	69.6	93	67.5	0	0	---	0.00	29.738 
23:40	69.4	69.4	69.4	93	67.3	0	0	---	0.00	29.741 
23:45	69.4	69.4	69.4	93	67.3	0	0	---	0.00	29.740 
23:50	69.4	69.4	69.4	94	67.6	0	1	68	0.00	29.737 
23:55	69.4	69.4	69.4	94	67.6	0	0	---	0.00	29.737 

CoCoRaHS
IN-AL-39
A2 Web Hosting
Creative Commons License
GoDaddy
Look for:

loaded 2017-12-11 14:33:23 • last modified 2010-11-18 10:43:29
Privacy PolicyDisclaimer
• wx.awcolley.com is powered by PmWiki v.2002016 •
• all content (unless otherwise noted) © 2017 A W Colley